sensor_id;sensor_type;location;lat;lon;timestamp;P1;durP1;ratioP1;P2;durP2;ratioP2
51495;SDS011;37572;52.094;4.870;2022-10-13T00:00:10;24.95;;;12.50;;
51495;SDS011;37572;52.094;4.870;2022-10-13T00:02:36;18.17;;;11.73;;
51495;SDS011;37572;52.094;4.870;2022-10-13T00:05:01;24.45;;;13.50;;
51495;SDS011;37572;52.094;4.870;2022-10-13T00:07:26;22.77;;;12.20;;
51495;SDS011;37572;52.094;4.870;2022-10-13T00:09:52;19.77;;;11.65;;
51495;SDS011;37572;52.094;4.870;2022-10-13T00:12:17;26.90;;;13.02;;
51495;SDS011;37572;52.094;4.870;2022-10-13T00:14:42;18.17;;;11.70;;
51495;SDS011;37572;52.094;4.870;2022-10-13T00:17:07;24.52;;;14.10;;
51495;SDS011;37572;52.094;4.870;2022-10-13T00:19:33;20.60;;;11.52;;
51495;SDS011;37572;52.094;4.870;2022-10-13T00:21:58;23.30;;;14.60;;
51495;SDS011;37572;52.094;4.870;2022-10-13T00:24:23;26.85;;;14.70;;
51495;SDS011;37572;52.094;4.870;2022-10-13T00:26:49;25.73;;;14.32;;
51495;SDS011;37572;52.094;4.870;2022-10-13T00:29:16;26.30;;;13.55;;
51495;SDS011;37572;52.094;4.870;2022-10-13T00:31:41;20.65;;;14.23;;
51495;SDS011;37572;52.094;4.870;2022-10-13T00:34:07;23.55;;;13.68;;
51495;SDS011;37572;52.094;4.870;2022-10-13T00:36:34;24.23;;;14.65;;
51495;SDS011;37572;52.094;4.870;2022-10-13T00:38:59;25.33;;;13.93;;
51495;SDS011;37572;52.094;4.870;2022-10-13T00:41:24;25.55;;;14.20;;
51495;SDS011;37572;52.094;4.870;2022-10-13T00:43:52;24.23;;;13.50;;
51495;SDS011;37572;52.094;4.870;2022-10-13T00:46:26;23.13;;;15.35;;
51495;SDS011;37572;52.094;4.870;2022-10-13T00:48:54;26.00;;;14.80;;
51495;SDS011;37572;52.094;4.870;2022-10-13T00:51:23;23.88;;;14.27;;
51495;SDS011;37572;52.094;4.870;2022-10-13T00:53:51;19.17;;;12.90;;
51495;SDS011;37572;52.094;4.870;2022-10-13T00:56:17;22.98;;;15.48;;
51495;SDS011;37572;52.094;4.870;2022-10-13T00:58:44;22.80;;;13.93;;
51495;SDS011;37572;52.094;4.870;2022-10-13T01:01:11;18.65;;;13.18;;
51495;SDS011;37572;52.094;4.870;2022-10-13T01:03:39;22.77;;;14.43;;
51495;SDS011;37572;52.094;4.870;2022-10-13T01:06:04;21.95;;;14.07;;
51495;SDS011;37572;52.094;4.870;2022-10-13T01:08:31;26.33;;;15.27;;
51495;SDS011;37572;52.094;4.870;2022-10-13T01:25:02;30.02;;;15.18;;
51495;SDS011;37572;52.094;4.870;2022-10-13T01:30:44;30.13;;;14.68;;
51495;SDS011;37572;52.094;4.870;2022-10-13T01:33:18;25.02;;;14.35;;
51495;SDS011;37572;52.094;4.870;2022-10-13T01:41:01;30.15;;;15.65;;
51495;SDS011;37572;52.094;4.870;2022-10-13T01:43:35;24.45;;;14.23;;
51495;SDS011;37572;52.094;4.870;2022-10-13T01:49:09;30.10;;;16.23;;
51495;SDS011;37572;52.094;4.870;2022-10-13T01:51:37;25.00;;;15.63;;
51495;SDS011;37572;52.094;4.870;2022-10-13T01:54:03;22.80;;;13.90;;
51495;SDS011;37572;52.094;4.870;2022-10-13T01:56:28;21.75;;;13.32;;
51495;SDS011;37572;52.094;4.870;2022-10-13T01:58:54;19.95;;;14.10;;
51495;SDS011;37572;52.094;4.870;2022-10-13T02:07:02;31.95;;;17.17;;
51495;SDS011;37572;52.094;4.870;2022-10-13T02:12:20;26.98;;;15.27;;
51495;SDS011;37572;52.094;4.870;2022-10-13T02:14:52;26.27;;;16.98;;
51495;SDS011;37572;52.094;4.870;2022-10-13T02:17:20;29.73;;;18.13;;
51495;SDS011;37572;52.094;4.870;2022-10-13T02:19:46;25.73;;;14.23;;
51495;SDS011;37572;52.094;4.870;2022-10-13T02:22:12;28.33;;;15.77;;
51495;SDS011;37572;52.094;4.870;2022-10-13T02:24:39;24.65;;;13.93;;
51495;SDS011;37572;52.094;4.870;2022-10-13T02:27:05;20.48;;;12.45;;
51495;SDS011;37572;52.094;4.870;2022-10-13T02:29:31;18.25;;;13.02;;
51495;SDS011;37572;52.094;4.870;2022-10-13T02:31:56;22.60;;;15.27;;
51495;SDS011;37572;52.094;4.870;2022-10-13T02:34:22;28.08;;;16.73;;
51495;SDS011;37572;52.094;4.870;2022-10-13T02:36:47;22.00;;;13.05;;
51495;SDS011;37572;52.094;4.870;2022-10-13T02:39:13;24.67;;;16.23;;
51495;SDS011;37572;52.094;4.870;2022-10-13T02:41:38;29.27;;;17.50;;
51495;SDS011;37572;52.094;4.870;2022-10-13T02:44:04;27.27;;;18.95;;
51495;SDS011;37572;52.094;4.870;2022-10-13T02:46:30;31.25;;;20.05;;
51495;SDS011;37572;52.094;4.870;2022-10-13T02:48:55;32.58;;;20.50;;
51495;SDS011;37572;52.094;4.870;2022-10-13T02:51:21;30.20;;;19.00;;
51495;SDS011;37572;52.094;4.870;2022-10-13T02:53:46;26.80;;;16.33;;
51495;SDS011;37572;52.094;4.870;2022-10-13T02:56:11;23.33;;;17.60;;
51495;SDS011;37572;52.094;4.870;2022-10-13T02:58:37;40.13;;;20.27;;
51495;SDS011;37572;52.094;4.870;2022-10-13T03:01:09;34.67;;;20.75;;
51495;SDS011;37572;52.094;4.870;2022-10-13T03:03:36;35.70;;;17.58;;
51495;SDS011;37572;52.094;4.870;2022-10-13T03:06:02;30.20;;;18.15;;
51495;SDS011;37572;52.094;4.870;2022-10-13T03:08:30;33.80;;;19.70;;
51495;SDS011;37572;52.094;4.870;2022-10-13T03:10:56;32.88;;;19.63;;
51495;SDS011;37572;52.094;4.870;2022-10-13T03:13:21;29.48;;;18.67;;
51495;SDS011;37572;52.094;4.870;2022-10-13T03:15:47;37.17;;;20.67;;
51495;SDS011;37572;52.094;4.870;2022-10-13T03:18:12;30.63;;;20.60;;
51495;SDS011;37572;52.094;4.870;2022-10-13T03:20:38;32.85;;;21.73;;
51495;SDS011;37572;52.094;4.870;2022-10-13T03:23:03;42.35;;;21.83;;
51495;SDS011;37572;52.094;4.870;2022-10-13T03:25:30;23.67;;;17.40;;
51495;SDS011;37572;52.094;4.870;2022-10-13T03:27:56;29.10;;;19.77;;
51495;SDS011;37572;52.094;4.870;2022-10-13T03:30:21;29.08;;;19.10;;
51495;SDS011;37572;52.094;4.870;2022-10-13T03:32:47;35.38;;;21.50;;
51495;SDS011;37572;52.094;4.870;2022-10-13T03:35:12;29.50;;;18.15;;
51495;SDS011;37572;52.094;4.870;2022-10-13T03:37:37;36.90;;;20.98;;
51495;SDS011;37572;52.094;4.870;2022-10-13T03:40:03;41.80;;;24.83;;
51495;SDS011;37572;52.094;4.870;2022-10-13T03:42:29;39.13;;;22.88;;
51495;SDS011;37572;52.094;4.870;2022-10-13T03:44:54;34.90;;;22.05;;
51495;SDS011;37572;52.094;4.870;2022-10-13T03:47:19;36.00;;;21.42;;
51495;SDS011;37572;52.094;4.870;2022-10-13T03:49:44;20.95;;;16.60;;
51495;SDS011;37572;52.094;4.870;2022-10-13T03:52:10;39.15;;;22.50;;
51495;SDS011;37572;52.094;4.870;2022-10-13T03:54:35;34.08;;;22.65;;
51495;SDS011;37572;52.094;4.870;2022-10-13T03:57:00;27.10;;;18.42;;
51495;SDS011;37572;52.094;4.870;2022-10-13T03:59:26;40.47;;;23.65;;
51495;SDS011;37572;52.094;4.870;2022-10-13T04:01:53;29.35;;;19.92;;
51495;SDS011;37572;52.094;4.870;2022-10-13T04:04:18;35.78;;;21.67;;
51495;SDS011;37572;52.094;4.870;2022-10-13T04:06:43;37.60;;;23.83;;
51495;SDS011;37572;52.094;4.870;2022-10-13T04:09:09;38.60;;;22.35;;
51495;SDS011;37572;52.094;4.870;2022-10-13T04:11:34;32.63;;;19.38;;
51495;SDS011;37572;52.094;4.870;2022-10-13T04:14:00;39.75;;;20.63;;
51495;SDS011;37572;52.094;4.870;2022-10-13T04:16:26;35.25;;;20.17;;
51495;SDS011;37572;52.094;4.870;2022-10-13T04:18:54;37.33;;;22.63;;
51495;SDS011;37572;52.094;4.870;2022-10-13T04:21:28;30.45;;;17.95;;
51495;SDS011;37572;52.094;4.870;2022-10-13T04:23:55;40.78;;;20.85;;
51495;SDS011;37572;52.094;4.870;2022-10-13T04:26:22;31.73;;;20.83;;
51495;SDS011;37572;52.094;4.870;2022-10-13T04:28:49;40.13;;;23.35;;
51495;SDS011;37572;52.094;4.870;2022-10-13T04:31:16;41.90;;;22.48;;
51495;SDS011;37572;52.094;4.870;2022-10-13T04:33:41;37.95;;;22.80;;
51495;SDS011;37572;52.094;4.870;2022-10-13T04:36:09;41.15;;;22.35;;
51495;SDS011;37572;52.094;4.870;2022-10-13T04:38:36;41.22;;;20.52;;
51495;SDS011;37572;52.094;4.870;2022-10-13T04:41:05;32.10;;;18.75;;
51495;SDS011;37572;52.094;4.870;2022-10-13T04:43:31;34.17;;;21.08;;
51495;SDS011;37572;52.094;4.870;2022-10-13T04:46:03;34.00;;;19.83;;
51495;SDS011;37572;52.094;4.870;2022-10-13T04:48:30;31.88;;;20.17;;
51495;SDS011;37572;52.094;4.870;2022-10-13T04:51:02;32.42;;;21.33;;
51495;SDS011;37572;52.094;4.870;2022-10-13T04:53:33;37.10;;;22.08;;
51495;SDS011;37572;52.094;4.870;2022-10-13T04:56:02;33.78;;;19.75;;
51495;SDS011;37572;52.094;4.870;2022-10-13T04:58:32;26.55;;;16.98;;
51495;SDS011;37572;52.094;4.870;2022-10-13T05:00:57;34.85;;;19.30;;
51495;SDS011;37572;52.094;4.870;2022-10-13T05:03:23;26.92;;;16.80;;
51495;SDS011;37572;52.094;4.870;2022-10-13T05:05:49;37.50;;;21.73;;
51495;SDS011;37572;52.094;4.870;2022-10-13T05:08:14;24.30;;;16.58;;
51495;SDS011;37572;52.094;4.870;2022-10-13T05:10:41;32.67;;;20.40;;
51495;SDS011;37572;52.094;4.870;2022-10-13T05:13:06;30.73;;;18.10;;
51495;SDS011;37572;52.094;4.870;2022-10-13T05:15:31;27.13;;;19.10;;
51495;SDS011;37572;52.094;4.870;2022-10-13T05:17:57;50.88;;;21.73;;
51495;SDS011;37572;52.094;4.870;2022-10-13T05:20:24;24.67;;;16.90;;
51495;SDS011;37572;52.094;4.870;2022-10-13T05:22:49;37.17;;;21.33;;
51495;SDS011;37572;52.094;4.870;2022-10-13T05:25:14;24.70;;;17.63;;
51495;SDS011;37572;52.094;4.870;2022-10-13T05:27:40;38.50;;;21.75;;
51495;SDS011;37572;52.094;4.870;2022-10-13T05:30:05;32.33;;;19.92;;
51495;SDS011;37572;52.094;4.870;2022-10-13T05:32:33;38.55;;;23.92;;
51495;SDS011;37572;52.094;4.870;2022-10-13T05:35:00;36.95;;;22.80;;
51495;SDS011;37572;52.094;4.870;2022-10-13T05:37:25;27.17;;;18.70;;
51495;SDS011;37572;52.094;4.870;2022-10-13T05:39:50;41.55;;;23.23;;
51495;SDS011;37572;52.094;4.870;2022-10-13T05:42:16;31.27;;;19.02;;
51495;SDS011;37572;52.094;4.870;2022-10-13T05:44:41;31.35;;;17.88;;
51495;SDS011;37572;52.094;4.870;2022-10-13T05:47:06;35.97;;;19.75;;
51495;SDS011;37572;52.094;4.870;2022-10-13T05:49:32;39.58;;;23.00;;
51495;SDS011;37572;52.094;4.870;2022-10-13T05:52:00;30.98;;;19.20;;
51495;SDS011;37572;52.094;4.870;2022-10-13T05:54:32;28.95;;;18.20;;
51495;SDS011;37572;52.094;4.870;2022-10-13T05:57:02;32.25;;;19.27;;
51495;SDS011;37572;52.094;4.870;2022-10-13T05:59:49;37.70;;;19.98;;
51495;SDS011;37572;52.094;4.870;2022-10-13T06:02:19;25.45;;;18.05;;
51495;SDS011;37572;52.094;4.870;2022-10-13T06:04:49;45.78;;;25.88;;
51495;SDS011;37572;52.094;4.870;2022-10-13T06:07:16;38.75;;;23.27;;
51495;SDS011;37572;52.094;4.870;2022-10-13T06:09:42;26.60;;;19.15;;
51495;SDS011;37572;52.094;4.870;2022-10-13T06:12:08;33.22;;;21.08;;
51495;SDS011;37572;52.094;4.870;2022-10-13T06:14:34;35.83;;;20.15;;
51495;SDS011;37572;52.094;4.870;2022-10-13T06:17:00;54.00;;;26.38;;
51495;SDS011;37572;52.094;4.870;2022-10-13T06:19:25;40.47;;;23.98;;
51495;SDS011;37572;52.094;4.870;2022-10-13T06:21:50;40.25;;;23.83;;
51495;SDS011;37572;52.094;4.870;2022-10-13T06:24:16;38.15;;;22.77;;
51495;SDS011;37572;52.094;4.870;2022-10-13T06:26:41;42.78;;;23.80;;
51495;SDS011;37572;52.094;4.870;2022-10-13T06:29:06;35.88;;;21.63;;
51495;SDS011;37572;52.094;4.870;2022-10-13T06:31:32;41.85;;;24.45;;
51495;SDS011;37572;52.094;4.870;2022-10-13T06:33:57;48.83;;;26.77;;
51495;SDS011;37572;52.094;4.870;2022-10-13T06:36:23;39.97;;;22.98;;
51495;SDS011;37572;52.094;4.870;2022-10-13T06:38:48;40.75;;;23.17;;
51495;SDS011;37572;52.094;4.870;2022-10-13T06:41:14;51.42;;;25.83;;
51495;SDS011;37572;52.094;4.870;2022-10-13T06:43:39;42.95;;;22.88;;
51495;SDS011;37572;52.094;4.870;2022-10-13T06:46:05;52.45;;;26.13;;
51495;SDS011;37572;52.094;4.870;2022-10-13T06:48:31;38.90;;;21.88;;
51495;SDS011;37572;52.094;4.870;2022-10-13T06:50:59;30.52;;;20.45;;
51495;SDS011;37572;52.094;4.870;2022-10-13T06:53:28;47.42;;;26.52;;
51495;SDS011;37572;52.094;4.870;2022-10-13T06:56:00;43.30;;;24.42;;
51495;SDS011;37572;52.094;4.870;2022-10-13T06:58:26;64.97;;;29.58;;
51495;SDS011;37572;52.094;4.870;2022-10-13T07:00:52;51.97;;;31.60;;
51495;SDS011;37572;52.094;4.870;2022-10-13T07:03:18;35.13;;;23.80;;
51495;SDS011;37572;52.094;4.870;2022-10-13T07:05:44;54.20;;;30.17;;
51495;SDS011;37572;52.094;4.870;2022-10-13T07:08:09;36.90;;;22.73;;
51495;SDS011;37572;52.094;4.870;2022-10-13T07:10:36;31.85;;;21.15;;
51495;SDS011;37572;52.094;4.870;2022-10-13T07:13:02;39.95;;;22.17;;
51495;SDS011;37572;52.094;4.870;2022-10-13T07:15:28;46.92;;;27.35;;
51495;SDS011;37572;52.094;4.870;2022-10-13T07:17:54;35.85;;;24.23;;
51495;SDS011;37572;52.094;4.870;2022-10-13T07:20:20;39.13;;;22.67;;
51495;SDS011;37572;52.094;4.870;2022-10-13T07:22:46;56.58;;;32.17;;
51495;SDS011;37572;52.094;4.870;2022-10-13T07:25:12;53.28;;;34.25;;
51495;SDS011;37572;52.094;4.870;2022-10-13T07:27:37;51.10;;;31.85;;
51495;SDS011;37572;52.094;4.870;2022-10-13T07:30:04;54.80;;;31.30;;
51495;SDS011;37572;52.094;4.870;2022-10-13T07:32:33;55.05;;;34.20;;
51495;SDS011;37572;52.094;4.870;2022-10-13T07:34:59;38.72;;;25.60;;
51495;SDS011;37572;52.094;4.870;2022-10-13T07:37:24;46.72;;;30.00;;
51495;SDS011;37572;52.094;4.870;2022-10-13T07:39:50;56.97;;;34.72;;
51495;SDS011;37572;52.094;4.870;2022-10-13T07:42:15;40.08;;;27.50;;
51495;SDS011;37572;52.094;4.870;2022-10-13T07:44:41;47.10;;;33.00;;
51495;SDS011;37572;52.094;4.870;2022-10-13T07:47:06;43.35;;;27.70;;
51495;SDS011;37572;52.094;4.870;2022-10-13T07:49:32;51.08;;;34.15;;
51495;SDS011;37572;52.094;4.870;2022-10-13T07:51:57;45.90;;;29.27;;
51495;SDS011;37572;52.094;4.870;2022-10-13T07:54:22;54.20;;;33.95;;
51495;SDS011;37572;52.094;4.870;2022-10-13T07:56:51;60.15;;;34.65;;
51495;SDS011;37572;52.094;4.870;2022-10-13T07:59:16;41.60;;;28.40;;
51495;SDS011;37572;52.094;4.870;2022-10-13T08:01:42;54.35;;;32.97;;
51495;SDS011;37572;52.094;4.870;2022-10-13T08:04:07;51.20;;;32.83;;
51495;SDS011;37572;52.094;4.870;2022-10-13T08:06:33;39.67;;;29.58;;
51495;SDS011;37572;52.094;4.870;2022-10-13T08:08:58;54.97;;;35.67;;
51495;SDS011;37572;52.094;4.870;2022-10-13T08:11:24;41.50;;;28.10;;
51495;SDS011;37572;52.094;4.870;2022-10-13T08:13:50;49.72;;;31.88;;
51495;SDS011;37572;52.094;4.870;2022-10-13T08:16:17;52.50;;;30.80;;
51495;SDS011;37572;52.094;4.870;2022-10-13T08:18:42;53.50;;;30.17;;
51495;SDS011;37572;52.094;4.870;2022-10-13T08:21:09;36.28;;;25.55;;
51495;SDS011;37572;52.094;4.870;2022-10-13T08:23:37;41.08;;;28.05;;
51495;SDS011;37572;52.094;4.870;2022-10-13T08:26:03;33.83;;;23.48;;
51495;SDS011;37572;52.094;4.870;2022-10-13T08:28:28;35.25;;;23.55;;
51495;SDS011;37572;52.094;4.870;2022-10-13T08:30:54;35.05;;;23.50;;
51495;SDS011;37572;52.094;4.870;2022-10-13T08:33:23;38.53;;;26.13;;
51495;SDS011;37572;52.094;4.870;2022-10-13T08:35:49;39.53;;;25.23;;
51495;SDS011;37572;52.094;4.870;2022-10-13T08:38:15;39.58;;;23.90;;
51495;SDS011;37572;52.094;4.870;2022-10-13T08:40:44;33.38;;;22.42;;
51495;SDS011;37572;52.094;4.870;2022-10-13T08:45:38;39.65;;;24.77;;
51495;SDS011;37572;52.094;4.870;2022-10-13T08:48:06;37.88;;;22.73;;
51495;SDS011;37572;52.094;4.870;2022-10-13T08:50:40;40.35;;;26.77;;
51495;SDS011;37572;52.094;4.870;2022-10-13T08:53:41;39.63;;;24.10;;
51495;SDS011;37572;52.094;4.870;2022-10-13T08:56:07;29.83;;;20.52;;
51495;SDS011;37572;52.094;4.870;2022-10-13T09:03:35;47.47;;;28.20;;
51495;SDS011;37572;52.094;4.870;2022-10-13T09:06:10;26.95;;;20.92;;
51495;SDS011;37572;52.094;4.870;2022-10-13T09:08:42;27.23;;;21.63;;
51495;SDS011;37572;52.094;4.870;2022-10-13T09:11:13;25.52;;;20.73;;
51495;SDS011;37572;52.094;4.870;2022-10-13T09:13:38;32.15;;;23.15;;
51495;SDS011;37572;52.094;4.870;2022-10-13T09:16:04;33.28;;;22.60;;
51495;SDS011;37572;52.094;4.870;2022-10-13T09:18:30;29.63;;;20.38;;
51495;SDS011;37572;52.094;4.870;2022-10-13T09:21:09;23.52;;;17.98;;
51495;SDS011;37572;52.094;4.870;2022-10-13T09:23:42;32.92;;;21.17;;
51495;SDS011;37572;52.094;4.870;2022-10-13T09:26:08;27.48;;;20.17;;
51495;SDS011;37572;52.094;4.870;2022-10-13T09:28:41;32.90;;;21.67;;
51495;SDS011;37572;52.094;4.870;2022-10-13T09:31:14;35.92;;;24.50;;
51495;SDS011;37572;52.094;4.870;2022-10-13T09:33:43;24.15;;;19.17;;
51495;SDS011;37572;52.094;4.870;2022-10-13T09:36:18;23.63;;;18.05;;
51495;SDS011;37572;52.094;4.870;2022-10-13T09:41:46;20.42;;;16.45;;
51495;SDS011;37572;52.094;4.870;2022-10-13T09:44:13;23.77;;;17.70;;
51495;SDS011;37572;52.094;4.870;2022-10-13T09:46:48;26.63;;;17.75;;
51495;SDS011;37572;52.094;4.870;2022-10-13T09:57:06;24.17;;;17.15;;
51495;SDS011;37572;52.094;4.870;2022-10-13T09:59:53;26.80;;;18.02;;
51495;SDS011;37572;52.094;4.870;2022-10-13T10:11:18;21.33;;;14.38;;
51495;SDS011;37572;52.094;4.870;2022-10-13T10:13:46;18.08;;;12.50;;
51495;SDS011;37572;52.094;4.870;2022-10-13T10:21:36;23.05;;;14.10;;
51495;SDS011;37572;52.094;4.870;2022-10-13T10:26:59;18.55;;;12.48;;
51495;SDS011;37572;52.094;4.870;2022-10-13T10:29:48;15.52;;;11.85;;
51495;SDS011;37572;52.094;4.870;2022-10-13T10:34:48;17.30;;;12.70;;
51495;SDS011;37572;52.094;4.870;2022-10-13T10:37:18;18.88;;;12.52;;
51495;SDS011;37572;52.094;4.870;2022-10-13T10:40:01;19.02;;;12.80;;
51495;SDS011;37572;52.094;4.870;2022-10-13T10:45:03;19.05;;;11.45;;
51495;SDS011;37572;52.094;4.870;2022-10-13T10:47:41;21.10;;;11.20;;
51495;SDS011;37572;52.094;4.870;2022-10-13T10:50:11;15.93;;;11.05;;
51495;SDS011;37572;52.094;4.870;2022-10-13T10:55:28;13.80;;;9.15;;
51495;SDS011;37572;52.094;4.870;2022-10-13T10:58:01;17.98;;;10.73;;
51495;SDS011;37572;52.094;4.870;2022-10-13T11:00:38;23.88;;;11.85;;
51495;SDS011;37572;52.094;4.870;2022-10-13T11:08:42;15.60;;;9.90;;
51495;SDS011;37572;52.094;4.870;2022-10-13T11:30:37;18.67;;;11.80;;
51495;SDS011;37572;52.094;4.870;2022-10-13T11:51:14;22.80;;;14.77;;
51495;SDS011;37572;52.094;4.870;2022-10-13T11:59:29;19.83;;;13.88;;
51495;SDS011;37572;52.094;4.870;2022-10-13T12:01:57;20.10;;;14.10;;
51495;SDS011;37572;52.094;4.870;2022-10-13T12:04:24;24.80;;;16.15;;
51495;SDS011;37572;52.094;4.870;2022-10-13T12:06:56;22.85;;;13.95;;
51495;SDS011;37572;52.094;4.870;2022-10-13T12:09:25;44.95;;;17.67;;
51495;SDS011;37572;52.094;4.870;2022-10-13T12:11:55;26.58;;;15.77;;
51495;SDS011;37572;52.094;4.870;2022-10-13T12:14:41;31.63;;;16.25;;
51495;SDS011;37572;52.094;4.870;2022-10-13T12:19:47;30.92;;;15.27;;
51495;SDS011;37572;52.094;4.870;2022-10-13T12:22:14;24.67;;;15.10;;
51495;SDS011;37572;52.094;4.870;2022-10-13T12:24:39;21.08;;;14.45;;
51495;SDS011;37572;52.094;4.870;2022-10-13T12:27:19;33.63;;;16.58;;
51495;SDS011;37572;52.094;4.870;2022-10-13T12:29:45;25.33;;;17.67;;
51495;SDS011;37572;52.094;4.870;2022-10-13T12:32:21;22.33;;;15.90;;
51495;SDS011;37572;52.094;4.870;2022-10-13T12:34:49;24.27;;;15.07;;
51495;SDS011;37572;52.094;4.870;2022-10-13T12:37:31;27.08;;;15.93;;
51495;SDS011;37572;52.094;4.870;2022-10-13T12:39:57;23.65;;;14.27;;
51495;SDS011;37572;52.094;4.870;2022-10-13T12:42:31;18.88;;;14.02;;
51495;SDS011;37572;52.094;4.870;2022-10-13T12:44:59;23.58;;;15.98;;
51495;SDS011;37572;52.094;4.870;2022-10-13T12:47:35;31.25;;;15.32;;
51495;SDS011;37572;52.094;4.870;2022-10-13T12:50:20;31.85;;;15.45;;
51495;SDS011;37572;52.094;4.870;2022-10-13T12:52:48;21.25;;;14.50;;
51495;SDS011;37572;52.094;4.870;2022-10-13T12:55:16;26.38;;;16.38;;
51495;SDS011;37572;52.094;4.870;2022-10-13T12:57:44;29.60;;;16.00;;
51495;SDS011;37572;52.094;4.870;2022-10-13T13:00:19;24.95;;;14.05;;
51495;SDS011;37572;52.094;4.870;2022-10-13T13:02:52;25.55;;;14.25;;
51495;SDS011;37572;52.094;4.870;2022-10-13T13:07:56;26.25;;;14.75;;
51495;SDS011;37572;52.094;4.870;2022-10-13T13:10:22;21.23;;;14.13;;
51495;SDS011;37572;52.094;4.870;2022-10-13T13:12:48;25.60;;;14.43;;
51495;SDS011;37572;52.094;4.870;2022-10-13T13:17:45;24.45;;;16.27;;
51495;SDS011;37572;52.094;4.870;2022-10-13T13:20:30;20.90;;;16.00;;
51495;SDS011;37572;52.094;4.870;2022-10-13T13:22:57;29.05;;;17.73;;
51495;SDS011;37572;52.094;4.870;2022-10-13T13:25:23;25.80;;;15.27;;
51495;SDS011;37572;52.094;4.870;2022-10-13T13:27:49;26.02;;;16.77;;
51495;SDS011;37572;52.094;4.870;2022-10-13T13:30:16;22.02;;;13.93;;
51495;SDS011;37572;52.094;4.870;2022-10-13T13:32:43;29.88;;;19.15;;
51495;SDS011;37572;52.094;4.870;2022-10-13T13:35:08;27.55;;;16.20;;
51495;SDS011;37572;52.094;4.870;2022-10-13T13:37:38;28.60;;;17.02;;
51495;SDS011;37572;52.094;4.870;2022-10-13T13:40:06;21.80;;;15.18;;
51495;SDS011;37572;52.094;4.870;2022-10-13T13:42:37;18.88;;;12.35;;
51495;SDS011;37572;52.094;4.870;2022-10-13T13:45:03;18.08;;;12.35;;
51495;SDS011;37572;52.094;4.870;2022-10-13T13:47:28;20.63;;;13.10;;
51495;SDS011;37572;52.094;4.870;2022-10-13T13:49:54;16.90;;;12.40;;
51495;SDS011;37572;52.094;4.870;2022-10-13T13:52:21;23.63;;;15.57;;
51495;SDS011;37572;52.094;4.870;2022-10-13T13:54:48;19.33;;;12.85;;
51495;SDS011;37572;52.094;4.870;2022-10-13T13:57:15;18.40;;;13.25;;
51495;SDS011;37572;52.094;4.870;2022-10-13T13:59:40;14.20;;;11.55;;
51495;SDS011;37572;52.094;4.870;2022-10-13T14:02:09;22.88;;;14.73;;
51495;SDS011;37572;52.094;4.870;2022-10-13T14:04:37;19.70;;;14.90;;
51495;SDS011;37572;52.094;4.870;2022-10-13T14:07:02;18.02;;;13.18;;
51495;SDS011;37572;52.094;4.870;2022-10-13T14:09:28;24.42;;;15.15;;
51495;SDS011;37572;52.094;4.870;2022-10-13T14:11:53;22.65;;;15.05;;
51495;SDS011;37572;52.094;4.870;2022-10-13T14:14:19;28.15;;;18.27;;
51495;SDS011;37572;52.094;4.870;2022-10-13T14:16:44;22.98;;;17.00;;
51495;SDS011;37572;52.094;4.870;2022-10-13T14:19:09;24.17;;;16.05;;
51495;SDS011;37572;52.094;4.870;2022-10-13T14:21:35;23.02;;;16.85;;
51495;SDS011;37572;52.094;4.870;2022-10-13T14:24:00;31.05;;;16.90;;
51495;SDS011;37572;52.094;4.870;2022-10-13T14:26:26;24.15;;;17.92;;
51495;SDS011;37572;52.094;4.870;2022-10-13T14:28:52;24.88;;;17.58;;
51495;SDS011;37572;52.094;4.870;2022-10-13T14:31:17;24.02;;;17.73;;
51495;SDS011;37572;52.094;4.870;2022-10-13T14:33:42;24.60;;;17.98;;
51495;SDS011;37572;52.094;4.870;2022-10-13T14:36:08;27.58;;;17.80;;
51495;SDS011;37572;52.094;4.870;2022-10-13T14:38:33;26.90;;;18.70;;
51495;SDS011;37572;52.094;4.870;2022-10-13T14:40:59;21.33;;;18.13;;
51495;SDS011;37572;52.094;4.870;2022-10-13T14:43:25;20.05;;;14.32;;
51495;SDS011;37572;52.094;4.870;2022-10-13T14:45:51;21.60;;;16.98;;
51495;SDS011;37572;52.094;4.870;2022-10-13T14:48:16;24.73;;;17.90;;
51495;SDS011;37572;52.094;4.870;2022-10-13T14:50:42;23.50;;;17.77;;
51495;SDS011;37572;52.094;4.870;2022-10-13T14:53:07;20.77;;;17.58;;
51495;SDS011;37572;52.094;4.870;2022-10-13T14:55:35;18.88;;;16.45;;
51495;SDS011;37572;52.094;4.870;2022-10-13T14:58:01;21.77;;;15.82;;
51495;SDS011;37572;52.094;4.870;2022-10-13T15:00:26;21.02;;;15.55;;
51495;SDS011;37572;52.094;4.870;2022-10-13T15:02:52;7.65;;;6.00;;
51495;SDS011;37572;52.094;4.870;2022-10-13T15:05:17;3.95;;;3.38;;
51495;SDS011;37572;52.094;4.870;2022-10-13T15:07:43;2.90;;;2.58;;
51495;SDS011;37572;52.094;4.870;2022-10-13T15:10:08;2.55;;;2.10;;
51495;SDS011;37572;52.094;4.870;2022-10-13T15:12:34;1.63;;;1.52;;
51495;SDS011;37572;52.094;4.870;2022-10-13T15:14:59;2.42;;;1.80;;
51495;SDS011;37572;52.094;4.870;2022-10-13T15:17:24;2.42;;;2.22;;
51495;SDS011;37572;52.094;4.870;2022-10-13T15:19:49;2.17;;;2.08;;
51495;SDS011;37572;52.094;4.870;2022-10-13T15:22:15;1.33;;;1.30;;
51495;SDS011;37572;52.094;4.870;2022-10-13T15:24:40;1.42;;;1.33;;
51495;SDS011;37572;52.094;4.870;2022-10-13T15:27:06;1.48;;;1.38;;
51495;SDS011;37572;52.094;4.870;2022-10-13T15:29:31;1.40;;;1.40;;
51495;SDS011;37572;52.094;4.870;2022-10-13T15:32:06;1.15;;;1.15;;
51495;SDS011;37572;52.094;4.870;2022-10-13T15:34:34;1.23;;;0.93;;
51495;SDS011;37572;52.094;4.870;2022-10-13T15:36:59;1.20;;;1.13;;
51495;SDS011;37572;52.094;4.870;2022-10-13T15:39:24;2.15;;;1.27;;
51495;SDS011;37572;52.094;4.870;2022-10-13T15:41:49;0.70;;;0.70;;
51495;SDS011;37572;52.094;4.870;2022-10-13T15:44:15;0.98;;;0.98;;
51495;SDS011;37572;52.094;4.870;2022-10-13T15:46:43;1.83;;;0.90;;
51495;SDS011;37572;52.094;4.870;2022-10-13T15:49:08;0.80;;;0.80;;
51495;SDS011;37572;52.094;4.870;2022-10-13T15:51:34;0.77;;;0.77;;
51495;SDS011;37572;52.094;4.870;2022-10-13T15:53:59;1.95;;;1.05;;
51495;SDS011;37572;52.094;4.870;2022-10-13T15:56:24;3.63;;;1.75;;
51495;SDS011;37572;52.094;4.870;2022-10-13T15:58:50;1.70;;;1.42;;
51495;SDS011;37572;52.094;4.870;2022-10-13T16:01:15;1.33;;;1.23;;
51495;SDS011;37572;52.094;4.870;2022-10-13T16:03:40;1.75;;;1.00;;
51495;SDS011;37572;52.094;4.870;2022-10-13T16:06:07;1.00;;;0.90;;
51495;SDS011;37572;52.094;4.870;2022-10-13T16:08:37;3.55;;;1.20;;
51495;SDS011;37572;52.094;4.870;2022-10-13T16:11:07;1.95;;;1.10;;
51495;SDS011;37572;52.094;4.870;2022-10-13T16:13:33;1.20;;;1.10;;
51495;SDS011;37572;52.094;4.870;2022-10-13T16:15:59;1.10;;;1.00;;
51495;SDS011;37572;52.094;4.870;2022-10-13T16:18:32;1.20;;;1.20;;
51495;SDS011;37572;52.094;4.870;2022-10-13T16:20:59;1.58;;;1.48;;
51495;SDS011;37572;52.094;4.870;2022-10-13T16:23:24;1.52;;;1.25;;
51495;SDS011;37572;52.094;4.870;2022-10-13T16:25:50;1.05;;;0.90;;
51495;SDS011;37572;52.094;4.870;2022-10-13T16:28:15;2.40;;;1.05;;
51495;SDS011;37572;52.094;4.870;2022-10-13T16:30:41;0.98;;;0.90;;
51495;SDS011;37572;52.094;4.870;2022-10-13T16:33:06;0.90;;;0.90;;
51495;SDS011;37572;52.094;4.870;2022-10-13T16:35:32;1.38;;;1.27;;
51495;SDS011;37572;52.094;4.870;2022-10-13T16:37:58;1.33;;;1.25;;